This is the latest recevied weather packets stored in our database for station/object N4RCT. If no packets are shown the sender has not sent any weather packets the latest 10 day(s).
| Time | Temp. | Humidity | Pressure | Rain* | Wind** | Luminosity | Snow |
|---|---|---|---|---|---|---|---|
| 1777767716 | 13.89° C | 55% | 1014.1 hPa | 0 mm | - | 1 W/m² | - |
| 1777767412 | 14.44° C | 56% | 1014.3 hPa | 0 mm | - | 2 W/m² | - |
| 1777767109 | 15° C | 55% | 1014.1 hPa | 0 mm | - | 5 W/m² | - |
| 1777766807 | 15° C | 55% | 1014.2 hPa | 0 mm | - | 6 W/m² | - |
| 1777766504 | 15.56° C | 52% | 1014 hPa | 0 mm | - | 9 W/m² | - |
| 1777766200 | 15.56° C | 48% | 1013.7 hPa | 0 mm | - | 10 W/m² | - |
| 1777765899 | 16.11° C | 47% | 1013.8 hPa | 0 mm | - | 13 W/m² | - |
| 1777765594 | 16.11° C | 46% | 1013.7 hPa | 0 mm | - | 15 W/m² | - |
| 1777765292 | 16.67° C | 48% | 1013.9 hPa | 0 mm | - | 16 W/m² | - |
| 1777764987 | 16.67° C | 44% | 1013.8 hPa | 0 mm | - | 18 W/m² | - |
| 1777764684 | 17.22° C | 41% | 1013.7 hPa | 0 mm | - | 19 W/m² | - |
| 1777764380 | 17.22° C | 42% | 1013.2 hPa | 0 mm | - | 21 W/m² | - |
| 1777764078 | 17.22° C | 40% | 1013.5 hPa | 0 mm | - | 23 W/m² | - |
| 1777763774 | 17.22° C | 41% | 1013.3 hPa | 0 mm | - | 24 W/m² | - |
| 1777763472 | 17.22° C | 41% | 1013.6 hPa | 0 mm | - | 25 W/m² | - |
| 1777763170 | 17.22° C | 44% | 1013.7 hPa | 0 mm | - | 28 W/m² | - |
| 1777762869 | 17.22° C | 42% | 1013.6 hPa | 0 mm | - | 27 W/m² | - |
| 1777762564 | 17.22° C | 43% | 1013.3 hPa | 0 mm | - | 29 W/m² | - |
| 1777762261 | 17.22° C | 44% | 1013.5 hPa | 0 mm | - | 26 W/m² | - |
| 1777761957 | 17.78° C | 45% | 1013.6 hPa | 0 mm | - | 26 W/m² | - |
| 1777761654 | 17.78° C | 41% | 1013.6 hPa | 0 mm | - | 27 W/m² | - |
| 1777761352 | 17.78° C | 40% | 1013.5 hPa | 0 mm | - | 32 W/m² | - |
| 1777761050 | 18.33° C | 41% | 1013.8 hPa | 0 mm | - | 30 W/m² | - |
| 1777760747 | 18.33° C | 39% | 1013.3 hPa | 0 mm | - | 43 W/m² | - |
| 1777760443 | 18.33° C | 39% | 1013.2 hPa | 0 mm | - | 41 W/m² | - |
* Rain latest hour (hover to see other rain measurements)
** Current wind speed in m/s (hover to see current wind gust speed)